sensor_id;sensor_type;location;lat;lon;timestamp;pressure;altitude;pressure_sealevel;temperature;humidity
60725;BME280;59881;36.722;-4.462;2022-09-24T00:00:57;100761.91;;;19.77;66.44
60725;BME280;59881;36.722;-4.462;2022-09-24T00:03:24;100756.75;;;19.84;66.41
60725;BME280;59881;36.722;-4.462;2022-09-24T00:05:51;100708.00;;;19.56;66.25
60725;BME280;59881;36.722;-4.462;2022-09-24T00:08:18;100029.50;;;15.34;65.66
60725;BME280;59881;36.722;-4.462;2022-09-24T00:10:45;100773.34;;;19.96;65.94
60725;BME280;59881;36.722;-4.462;2022-09-24T00:13:14;99970.63;;;15.02;65.75
60725;BME280;59881;36.722;-4.462;2022-09-24T00:15:45;100727.72;;;19.63;65.83
60725;BME280;59881;36.722;-4.462;2022-09-24T00:18:13;100770.31;;;19.91;65.65
60725;BME280;59881;36.722;-4.462;2022-09-24T00:20:39;100372.19;;;17.26;65.45
60725;BME280;59881;36.722;-4.462;2022-09-24T00:23:05;100746.66;;;19.70;65.91
60725;BME280;59881;36.722;-4.462;2022-09-24T00:25:32;100602.31;;;18.85;65.61
60725;BME280;59881;36.722;-4.462;2022-09-24T00:28:16;100800.72;;;19.90;65.80
60725;BME280;59881;36.722;-4.462;2022-09-24T00:30:43;100765.97;;;19.90;65.94
60725;BME280;59881;36.722;-4.462;2022-09-24T00:33:10;100410.03;;;17.73;65.81
60725;BME280;59881;36.722;-4.462;2022-09-24T00:35:36;100763.63;;;19.87;65.67
60725;BME280;59881;36.722;-4.462;2022-09-24T00:38:02;100756.44;;;19.87;65.28
60725;BME280;59881;36.722;-4.462;2022-09-24T00:40:30;100752.94;;;19.87;65.24
60725;BME280;59881;36.722;-4.462;2022-09-24T00:42:56;100367.38;;;17.47;65.04
60725;BME280;59881;36.722;-4.462;2022-09-24T00:45:23;100757.75;;;19.83;64.90
60725;BME280;59881;36.722;-4.462;2022-09-24T00:47:49;100759.72;;;19.81;64.95
60725;BME280;59881;36.722;-4.462;2022-09-24T00:50:23;100923.81;;;19.80;65.01
60725;BME280;59881;36.722;-4.462;2022-09-24T00:55:16;100701.59;;;19.14;64.84
60725;BME280;59881;36.722;-4.462;2022-09-24T00:57:44;100461.34;;;17.40;64.96
60725;BME280;59881;36.722;-4.462;2022-09-24T01:00:12;100574.97;;;18.65;64.83
60725;BME280;59881;36.722;-4.462;2022-09-24T01:02:41;100746.19;;;19.74;65.10
60725;BME280;59881;36.722;-4.462;2022-09-24T01:05:08;100295.53;;;16.93;64.68
60725;BME280;59881;36.722;-4.462;2022-09-24T01:07:34;100743.00;;;19.71;64.88
60725;BME280;59881;36.722;-4.462;2022-09-24T01:10:00;100715.47;;;19.52;64.59
60725;BME280;59881;36.722;-4.462;2022-09-24T01:12:34;100687.94;;;18.91;64.52
60725;BME280;59881;36.722;-4.462;2022-09-24T01:15:23;100744.59;;;19.63;64.33
60725;BME280;59881;36.722;-4.462;2022-09-24T01:18:15;100733.06;;;19.63;64.36
60725;BME280;59881;36.722;-4.462;2022-09-24T01:20:48;100731.91;;;19.65;63.97
60725;BME280;59881;36.722;-4.462;2022-09-24T01:31:26;100084.28;;;15.80;63.25
60725;BME280;59881;36.722;-4.462;2022-09-24T01:33:56;100597.00;;;18.93;63.05
60725;BME280;59881;36.722;-4.462;2022-09-24T01:36:24;100648.91;;;19.25;63.15
60725;BME280;59881;36.722;-4.462;2022-09-24T01:38:52;100708.03;;;19.64;62.94
60725;BME280;59881;36.722;-4.462;2022-09-24T01:41:20;100682.53;;;19.43;62.78
60725;BME280;59881;36.722;-4.462;2022-09-24T01:43:47;100634.63;;;18.81;62.99
60725;BME280;59881;36.722;-4.462;2022-09-24T01:46:14;100603.50;;;18.90;62.87
60725;BME280;59881;36.722;-4.462;2022-09-24T01:48:44;100709.50;;;19.58;63.10
60725;BME280;59881;36.722;-4.462;2022-09-24T01:51:15;100713.34;;;19.56;62.72
60725;BME280;59881;36.722;-4.462;2022-09-24T01:53:45;100708.16;;;19.54;62.73
60725;BME280;59881;36.722;-4.462;2022-09-24T01:56:35;100640.50;;;19.11;62.58
60725;BME280;59881;36.722;-4.462;2022-09-24T01:59:11;100578.53;;;18.73;62.61
60725;BME280;59881;36.722;-4.462;2022-09-24T02:01:59;100698.75;;;19.50;62.72
60725;BME280;59881;36.722;-4.462;2022-09-24T02:04:27;100697.94;;;19.50;62.69
60725;BME280;59881;36.722;-4.462;2022-09-24T02:07:01;100690.94;;;19.49;62.65
60725;BME280;59881;36.722;-4.462;2022-09-24T02:09:38;100689.78;;;19.51;62.23
60725;BME280;59881;36.722;-4.462;2022-09-24T02:12:18;100689.63;;;19.53;61.95
60725;BME280;59881;36.722;-4.462;2022-09-24T02:14:52;100683.59;;;19.51;62.04
60725;BME280;59881;36.722;-4.462;2022-09-24T02:17:21;100390.75;;;17.17;61.80
60725;BME280;59881;36.722;-4.462;2022-09-24T02:19:49;100664.69;;;18.84;61.87
60725;BME280;59881;36.722;-4.462;2022-09-24T02:22:16;100671.69;;;19.45;61.96
60725;BME280;59881;36.722;-4.462;2022-09-24T02:24:51;100672.72;;;19.44;62.18
60725;BME280;59881;36.722;-4.462;2022-09-24T02:27:18;100664.84;;;19.42;62.18
60725;BME280;59881;36.722;-4.462;2022-09-24T02:29:44;100674.72;;;19.42;62.03
60725;BME280;59881;36.722;-4.462;2022-09-24T02:32:13;100615.25;;;19.06;61.94
60725;BME280;59881;36.722;-4.462;2022-09-24T02:34:45;100620.13;;;19.10;61.72
60725;BME280;59881;36.722;-4.462;2022-09-24T02:37:14;100666.69;;;19.42;61.79
60725;BME280;59881;36.722;-4.462;2022-09-24T02:39:40;100580.13;;;18.84;61.80
60725;BME280;59881;36.722;-4.462;2022-09-24T02:42:06;100625.34;;;19.20;61.87
60725;BME280;59881;36.722;-4.462;2022-09-24T02:44:34;100655.00;;;19.43;61.72
60725;BME280;59881;36.722;-4.462;2022-09-24T02:47:03;100653.00;;;19.45;61.48
60725;BME280;59881;36.722;-4.462;2022-09-24T02:49:29;100646.50;;;19.48;61.50
60725;BME280;59881;36.722;-4.462;2022-09-24T02:51:54;100600.66;;;19.18;61.75
60725;BME280;59881;36.722;-4.462;2022-09-24T02:54:20;100236.88;;;16.95;61.50
60725;BME280;59881;36.722;-4.462;2022-09-24T02:56:46;100638.31;;;19.49;61.48
60725;BME280;59881;36.722;-4.462;2022-09-24T02:59:12;100616.56;;;19.36;61.68
60725;BME280;59881;36.722;-4.462;2022-09-24T03:01:37;100206.56;;;16.88;61.49
60725;BME280;59881;36.722;-4.462;2022-09-24T03:04:03;100634.66;;;19.50;61.53
60725;BME280;59881;36.722;-4.462;2022-09-24T03:06:29;100597.16;;;19.26;61.18
60725;BME280;59881;36.722;-4.462;2022-09-24T03:08:55;99874.28;;;14.84;61.15
60725;BME280;59881;36.722;-4.462;2022-09-24T03:11:21;100629.47;;;19.49;61.42
60725;BME280;59881;36.722;-4.462;2022-09-24T03:13:48;100603.22;;;19.36;61.59
60725;BME280;59881;36.722;-4.462;2022-09-24T03:16:14;100588.16;;;19.27;61.38
60725;BME280;59881;36.722;-4.462;2022-09-24T03:18:40;100183.91;;;16.84;61.35
60725;BME280;59881;36.722;-4.462;2022-09-24T03:21:08;100620.59;;;19.48;61.38
60725;BME280;59881;36.722;-4.462;2022-09-24T03:23:34;100195.09;;;16.87;61.41
60725;BME280;59881;36.722;-4.462;2022-09-24T03:26:00;100617.94;;;19.48;61.62
60725;BME280;59881;36.722;-4.462;2022-09-24T03:28:26;100617.78;;;19.50;61.61
60725;BME280;59881;36.722;-4.462;2022-09-24T03:30:52;100610.41;;;19.43;61.59
60725;BME280;59881;36.722;-4.462;2022-09-24T03:33:44;100585.84;;;19.32;61.31
60725;BME280;59881;36.722;-4.462;2022-09-24T03:36:15;100188.84;;;16.79;61.32
60725;BME280;59881;36.722;-4.462;2022-09-24T03:38:43;100616.63;;;19.44;61.83
60725;BME280;59881;36.722;-4.462;2022-09-24T03:41:10;100605.56;;;19.39;61.65
60725;BME280;59881;36.722;-4.462;2022-09-24T03:43:36;100220.28;;;17.01;61.38
60725;BME280;59881;36.722;-4.462;2022-09-24T03:46:02;100237.44;;;17.07;61.35
60725;BME280;59881;36.722;-4.462;2022-09-24T03:48:29;100583.47;;;19.20;61.62
60725;BME280;59881;36.722;-4.462;2022-09-24T03:50:55;100131.22;;;16.43;61.55
60725;BME280;59881;36.722;-4.462;2022-09-24T03:53:21;100540.16;;;19.00;61.75
60725;BME280;59881;36.722;-4.462;2022-09-24T03:55:55;100571.09;;;19.19;61.98
60725;BME280;59881;36.722;-4.462;2022-09-24T03:58:21;100591.19;;;19.32;61.75
60725;BME280;59881;36.722;-4.462;2022-09-24T04:00:47;100518.91;;;18.83;61.55
60725;BME280;59881;36.722;-4.462;2022-09-24T04:03:12;100250.72;;;16.63;61.79
60725;BME280;59881;36.722;-4.462;2022-09-24T04:05:38;100590.16;;;19.25;61.95
60725;BME280;59881;36.722;-4.462;2022-09-24T04:08:04;100618.31;;;19.11;62.02
60725;BME280;59881;36.722;-4.462;2022-09-24T04:10:30;100554.03;;;19.04;61.99
60725;BME280;59881;36.722;-4.462;2022-09-24T04:12:56;100546.66;;;18.98;62.21
60725;BME280;59881;36.722;-4.462;2022-09-24T04:15:22;100578.44;;;19.17;62.17
60725;BME280;59881;36.722;-4.462;2022-09-24T04:17:56;100531.91;;;18.86;62.25
60725;BME280;59881;36.722;-4.462;2022-09-24T04:20:23;100141.38;;;16.48;61.81
60725;BME280;59881;36.722;-4.462;2022-09-24T04:22:50;100492.75;;;18.60;62.12
60725;BME280;59881;36.722;-4.462;2022-09-24T04:25:16;100559.81;;;18.99;62.05
60725;BME280;59881;36.722;-4.462;2022-09-24T04:27:43;100578.25;;;19.11;62.33
60725;BME280;59881;36.722;-4.462;2022-09-24T04:30:10;100580.06;;;19.10;62.22
60725;BME280;59881;36.722;-4.462;2022-09-24T04:32:36;100582.59;;;19.12;62.09
60725;BME280;59881;36.722;-4.462;2022-09-24T04:35:02;100161.19;;;16.53;61.99
60725;BME280;59881;36.722;-4.462;2022-09-24T04:37:28;100586.41;;;19.09;62.31
60725;BME280;59881;36.722;-4.462;2022-09-24T04:39:53;100539.91;;;18.77;62.07
60725;BME280;59881;36.722;-4.462;2022-09-24T04:42:19;100188.41;;;16.65;61.96
60725;BME280;59881;36.722;-4.462;2022-09-24T04:44:45;100582.38;;;19.05;62.30
60725;BME280;59881;36.722;-4.462;2022-09-24T04:47:15;100147.91;;;16.35;62.30
60725;BME280;59881;36.722;-4.462;2022-09-24T04:49:41;100584.53;;;19.01;62.36
60725;BME280;59881;36.722;-4.462;2022-09-24T04:52:09;100530.13;;;18.68;62.56
60725;BME280;59881;36.722;-4.462;2022-09-24T04:54:34;100046.72;;;15.75;62.39
60725;BME280;59881;36.722;-4.462;2022-09-24T04:57:00;100555.94;;;18.86;62.82
60725;BME280;59881;36.722;-4.462;2022-09-24T04:59:25;100585.69;;;18.99;62.69
60725;BME280;59881;36.722;-4.462;2022-09-24T05:01:51;100479.38;;;18.26;62.49
60725;BME280;59881;36.722;-4.462;2022-09-24T05:04:19;100439.78;;;18.13;62.60
60725;BME280;59881;36.722;-4.462;2022-09-24T05:06:44;100094.78;;;16.00;62.72
60725;BME280;59881;36.722;-4.462;2022-09-24T05:09:10;100580.19;;;19.00;62.85
60725;BME280;59881;36.722;-4.462;2022-09-24T05:11:35;100580.34;;;18.99;62.71
60725;BME280;59881;36.722;-4.462;2022-09-24T05:14:01;100247.66;;;16.93;62.78
60725;BME280;59881;36.722;-4.462;2022-09-24T05:16:26;100204.63;;;16.62;62.70
60725;BME280;59881;36.722;-4.462;2022-09-24T05:18:52;100530.78;;;18.62;63.13
60725;BME280;59881;36.722;-4.462;2022-09-24T05:21:18;100602.59;;;18.55;63.14
60725;BME280;59881;36.722;-4.462;2022-09-24T05:23:44;100670.22;;;18.90;63.13
60725;BME280;59881;36.722;-4.462;2022-09-24T05:26:09;100563.50;;;18.72;63.08
60725;BME280;59881;36.722;-4.462;2022-09-24T05:28:53;100550.50;;;18.43;63.25
60725;BME280;59881;36.722;-4.462;2022-09-24T05:31:19;100484.50;;;18.19;63.39
60725;BME280;59881;36.722;-4.462;2022-09-24T05:33:44;100588.59;;;18.79;63.29
60725;BME280;59881;36.722;-4.462;2022-09-24T05:36:10;100483.31;;;18.13;63.42
60725;BME280;59881;36.722;-4.462;2022-09-24T05:38:35;100474.09;;;18.08;63.39
60725;BME280;59881;36.722;-4.462;2022-09-24T05:41:01;100583.88;;;18.73;63.46
60725;BME280;59881;36.722;-4.462;2022-09-24T05:43:27;100586.69;;;18.72;63.51
60725;BME280;59881;36.722;-4.462;2022-09-24T05:45:53;100539.00;;;18.43;63.48
60725;BME280;59881;36.722;-4.462;2022-09-24T05:48:19;100584.03;;;18.72;63.34
60725;BME280;59881;36.722;-4.462;2022-09-24T05:50:45;100588.34;;;18.73;63.38
60725;BME280;59881;36.722;-4.462;2022-09-24T05:53:11;100585.69;;;18.73;63.30
60725;BME280;59881;36.722;-4.462;2022-09-24T05:55:37;100583.19;;;18.71;63.44
60725;BME280;59881;36.722;-4.462;2022-09-24T05:58:07;100703.97;;;18.73;63.71
60725;BME280;59881;36.722;-4.462;2022-09-24T06:00:34;100167.75;;;16.23;63.27
60725;BME280;59881;36.722;-4.462;2022-09-24T06:03:05;100562.13;;;18.60;63.16
60725;BME280;59881;36.722;-4.462;2022-09-24T06:05:32;100522.59;;;18.37;63.16
60725;BME280;59881;36.722;-4.462;2022-09-24T06:08:00;100593.09;;;18.79;63.26
60725;BME280;59881;36.722;-4.462;2022-09-24T06:10:26;100498.88;;;18.26;62.98
60725;BME280;59881;36.722;-4.462;2022-09-24T06:12:52;100571.03;;;18.77;63.00
60725;BME280;59881;36.722;-4.462;2022-09-24T06:15:18;100520.25;;;18.60;62.58
60725;BME280;59881;36.722;-4.462;2022-09-24T06:17:45;100603.84;;;19.30;62.28
60725;BME280;59881;36.722;-4.462;2022-09-24T06:20:11;100586.22;;;19.45;61.88
60725;BME280;59881;36.722;-4.462;2022-09-24T06:22:36;100575.97;;;19.83;60.96
60725;BME280;59881;36.722;-4.462;2022-09-24T06:25:02;100598.56;;;20.46;60.20
60725;BME280;59881;36.722;-4.462;2022-09-24T06:27:27;100547.34;;;20.65;58.85
60725;BME280;59881;36.722;-4.462;2022-09-24T06:29:53;100543.19;;;21.11;57.16
60725;BME280;59881;36.722;-4.462;2022-09-24T06:32:18;100280.31;;;20.13;55.24
60725;BME280;59881;36.722;-4.462;2022-09-24T06:34:44;100660.69;;;22.85;53.67
60725;BME280;59881;36.722;-4.462;2022-09-24T06:37:09;100550.16;;;23.32;51.94
60725;BME280;59881;36.722;-4.462;2022-09-24T06:39:35;100412.06;;;23.12;49.96
60725;BME280;59881;36.722;-4.462;2022-09-24T06:42:00;100507.72;;;24.42;48.11
60725;BME280;59881;36.722;-4.462;2022-09-24T06:44:26;100567.53;;;25.42;46.51
60725;BME280;59881;36.722;-4.462;2022-09-24T06:46:52;100268.03;;;24.15;45.26
60725;BME280;59881;36.722;-4.462;2022-09-24T06:49:17;100162.84;;;24.10;43.86
60725;BME280;59881;36.722;-4.462;2022-09-24T06:51:43;100564.16;;;27.20;42.35
60725;BME280;59881;36.722;-4.462;2022-09-24T06:54:08;100481.59;;;27.24;40.61
60725;BME280;59881;36.722;-4.462;2022-09-24T06:56:34;100627.50;;;28.27;39.66
60725;BME280;59881;36.722;-4.462;2022-09-24T06:58:59;100560.09;;;28.81;38.25
60725;BME280;59881;36.722;-4.462;2022-09-24T07:01:25;100553.13;;;29.41;36.95
60725;BME280;59881;36.722;-4.462;2022-09-24T07:03:50;100230.75;;;28.00;36.00
60725;BME280;59881;36.722;-4.462;2022-09-24T07:06:16;100558.56;;;30.48;35.01
60725;BME280;59881;36.722;-4.462;2022-09-24T07:08:42;100255.94;;;29.03;34.00
60725;BME280;59881;36.722;-4.462;2022-09-24T07:11:07;100232.00;;;29.35;32.85
60725;BME280;59881;36.722;-4.462;2022-09-24T07:13:33;100539.66;;;31.75;32.06
60725;BME280;59881;36.722;-4.462;2022-09-24T07:15:59;100490.34;;;32.27;31.69
60725;BME280;59881;36.722;-4.462;2022-09-24T07:18:25;100572.50;;;33.36;31.11
60725;BME280;59881;36.722;-4.462;2022-09-24T07:20:52;100555.56;;;33.34;29.38
60725;BME280;59881;36.722;-4.462;2022-09-24T07:23:18;100207.16;;;30.65;29.09
60725;BME280;59881;36.722;-4.462;2022-09-24T07:25:44;100583.25;;;32.43;29.58
60725;BME280;59881;36.722;-4.462;2022-09-24T07:28:11;100581.59;;;32.75;29.53
60725;BME280;59881;36.722;-4.462;2022-09-24T07:30:38;100571.78;;;33.68;28.15
60725;BME280;59881;36.722;-4.462;2022-09-24T07:33:05;100256.31;;;32.58;27.11
60725;BME280;59881;36.722;-4.462;2022-09-24T07:35:32;100571.19;;;35.20;26.39
60725;BME280;59881;36.722;-4.462;2022-09-24T07:38:03;100572.97;;;35.98;25.03
60725;BME280;59881;36.722;-4.462;2022-09-24T07:40:30;100577.28;;;36.71;24.61
60725;BME280;59881;36.722;-4.462;2022-09-24T07:42:57;100574.19;;;37.43;23.55
60725;BME280;59881;36.722;-4.462;2022-09-24T07:45:24;100540.38;;;37.87;22.94
60725;BME280;59881;36.722;-4.462;2022-09-24T07:47:59;100333.31;;;37.09;22.35
60725;BME280;59881;36.722;-4.462;2022-09-24T07:50:26;100565.47;;;39.11;21.69
60725;BME280;59881;36.722;-4.462;2022-09-24T07:52:51;100568.69;;;39.75;21.11
60725;BME280;59881;36.722;-4.462;2022-09-24T07:55:17;100549.47;;;40.03;20.63
60725;BME280;59881;36.722;-4.462;2022-09-24T07:57:48;100520.03;;;39.84;20.57
60725;BME280;59881;36.722;-4.462;2022-09-24T08:00:15;100577.03;;;40.36;20.21
60725;BME280;59881;36.722;-4.462;2022-09-24T08:02:42;100580.75;;;41.14;19.95
60725;BME280;59881;36.722;-4.462;2022-09-24T08:05:09;100590.75;;;41.24;20.80
60725;BME280;59881;36.722;-4.462;2022-09-24T08:07:34;100244.78;;;38.52;20.45
60725;BME280;59881;36.722;-4.462;2022-09-24T08:10:00;100567.66;;;40.50;20.22
60725;BME280;59881;36.722;-4.462;2022-09-24T08:12:26;100464.19;;;39.60;20.58
60725;BME280;59881;36.722;-4.462;2022-09-24T08:14:52;100586.06;;;40.69;20.67
60725;BME280;59881;36.722;-4.462;2022-09-24T08:17:18;100447.63;;;40.20;20.07
60725;BME280;59881;36.722;-4.462;2022-09-24T08:19:43;100588.50;;;41.26;19.88
60725;BME280;59881;36.722;-4.462;2022-09-24T08:22:10;100583.09;;;41.80;19.49
60725;BME280;59881;36.722;-4.462;2022-09-24T08:24:37;100325.50;;;40.79;19.06
60725;BME280;59881;36.722;-4.462;2022-09-24T08:27:02;100331.69;;;41.07;18.94
60725;BME280;59881;36.722;-4.462;2022-09-24T08:29:28;100565.59;;;42.47;18.29
60725;BME280;59881;36.722;-4.462;2022-09-24T08:31:53;100587.50;;;42.66;18.27
60725;BME280;59881;36.722;-4.462;2022-09-24T08:34:19;100584.38;;;43.16;18.20
60725;BME280;59881;36.722;-4.462;2022-09-24T08:36:45;100393.00;;;42.60;18.59
60725;BME280;59881;36.722;-4.462;2022-09-24T08:39:11;100422.25;;;43.57;17.34
60725;BME280;59881;36.722;-4.462;2022-09-24T08:47:19;100601.84;;;45.94;17.22
60725;BME280;59881;36.722;-4.462;2022-09-24T08:49:57;100641.09;;;46.01;16.95
60725;BME280;59881;36.722;-4.462;2022-09-24T08:52:29;100596.13;;;46.24;16.63
60725;BME280;59881;36.722;-4.462;2022-09-24T08:55:03;100588.69;;;46.16;16.62
60725;BME280;59881;36.722;-4.462;2022-09-24T08:57:38;100585.25;;;46.80;16.06
60725;BME280;59881;36.722;-4.462;2022-09-24T09:00:13;100580.78;;;47.16;13.78
60725;BME280;59881;36.722;-4.462;2022-09-24T09:02:52;100511.22;;;47.08;15.42
60725;BME280;59881;36.722;-4.462;2022-09-24T09:08:00;100586.19;;;47.94;15.35
60725;BME280;59881;36.722;-4.462;2022-09-24T09:10:33;100543.78;;;47.88;14.57
60725;BME280;59881;36.722;-4.462;2022-09-24T09:13:10;100591.38;;;48.39;14.71
60725;BME280;59881;36.722;-4.462;2022-09-24T09:16:06;100498.75;;;48.21;14.37
60725;BME280;59881;36.722;-4.462;2022-09-24T09:18:41;100554.56;;;48.69;13.78
60725;BME280;59881;36.722;-4.462;2022-09-24T09:21:39;100568.56;;;48.88;14.24
60725;BME280;59881;36.722;-4.462;2022-09-24T09:24:51;100564.53;;;49.41;14.17
60725;BME280;59881;36.722;-4.462;2022-09-24T09:27:16;100564.19;;;49.42;13.37
60725;BME280;59881;36.722;-4.462;2022-09-24T09:30:12;100568.66;;;49.89;13.64
60725;BME280;59881;36.722;-4.462;2022-09-24T09:32:49;100568.03;;;50.00;12.09
60725;BME280;59881;36.722;-4.462;2022-09-24T09:38:25;100559.59;;;48.79;13.48
60725;BME280;59881;36.722;-4.462;2022-09-24T09:43:40;100537.00;;;48.68;13.39
60725;BME280;59881;36.722;-4.462;2022-09-24T09:46:17;100560.09;;;49.01;13.23
60725;BME280;59881;36.722;-4.462;2022-09-24T09:48:59;100357.00;;;48.34;13.28
60725;BME280;59881;36.722;-4.462;2022-09-24T09:51:32;100536.81;;;49.98;12.70
60725;BME280;59881;36.722;-4.462;2022-09-24T09:54:02;100124.97;;;47.65;13.06
60725;BME280;59881;36.722;-4.462;2022-09-24T09:56:35;100546.75;;;50.98;12.30
60725;BME280;59881;36.722;-4.462;2022-09-24T09:59:05;100540.44;;;51.05;12.18
60725;BME280;59881;36.722;-4.462;2022-09-24T10:01:33;100533.47;;;51.22;11.82
60725;BME280;59881;36.722;-4.462;2022-09-24T10:04:02;100479.25;;;50.80;12.17
60725;BME280;59881;36.722;-4.462;2022-09-24T10:06:33;100590.03;;;51.27;11.82
60725;BME280;59881;36.722;-4.462;2022-09-24T10:09:17;100487.22;;;50.78;11.59
60725;BME280;59881;36.722;-4.462;2022-09-24T10:11:44;100518.69;;;50.68;11.38
60725;BME280;59881;36.722;-4.462;2022-09-24T10:14:15;100537.66;;;50.02;12.02
60725;BME280;59881;36.722;-4.462;2022-09-24T10:16:45;100567.22;;;49.18;12.52
60725;BME280;59881;36.722;-4.462;2022-09-24T10:19:19;100441.34;;;47.44;13.87
60725;BME280;59881;36.722;-4.462;2022-09-24T10:21:46;100564.97;;;48.05;13.41
60725;BME280;59881;36.722;-4.462;2022-09-24T10:24:19;100504.91;;;47.67;13.19
60725;BME280;59881;36.722;-4.462;2022-09-24T10:26:46;100286.72;;;46.54;13.21
60725;BME280;59881;36.722;-4.462;2022-09-24T10:29:30;100534.69;;;47.91;12.70
60725;BME280;59881;36.722;-4.462;2022-09-24T10:32:17;100510.28;;;48.04;13.31
60725;BME280;59881;36.722;-4.462;2022-09-24T10:35:00;100521.34;;;48.48;13.07
60725;BME280;59881;36.722;-4.462;2022-09-24T10:37:26;100521.66;;;49.17;12.49
60725;BME280;59881;36.722;-4.462;2022-09-24T10:40:00;100373.19;;;48.09;12.66
60725;BME280;59881;36.722;-4.462;2022-09-24T10:42:28;100528.09;;;44.32;15.52
60725;BME280;59881;36.722;-4.462;2022-09-24T10:44:55;100353.25;;;38.45;19.91
60725;BME280;59881;36.722;-4.462;2022-09-24T10:50:30;100625.97;;;34.08;26.54
60725;BME280;59881;36.722;-4.462;2022-09-24T10:53:31;100535.66;;;33.11;27.56
60725;BME280;59881;36.722;-4.462;2022-09-24T11:04:25;100541.56;;;31.46;30.35
60725;BME280;59881;36.722;-4.462;2022-09-24T11:12:26;100495.66;;;30.68;31.36
60725;BME280;59881;36.722;-4.462;2022-09-24T11:34:25;100515.19;;;29.95;38.81
60725;BME280;59881;36.722;-4.462;2022-09-24T11:48:31;100504.16;;;28.68;42.58
60725;BME280;59881;36.722;-4.462;2022-09-24T11:51:14;100458.28;;;28.30;43.68
60725;BME280;59881;36.722;-4.462;2022-09-24T11:56:41;100591.09;;;28.48;43.63
60725;BME280;59881;36.722;-4.462;2022-09-24T12:02:25;100500.69;;;28.61;43.63
60725;BME280;59881;36.722;-4.462;2022-09-24T12:07:52;100070.38;;;26.13;43.23
60725;BME280;59881;36.722;-4.462;2022-09-24T12:13:30;100472.81;;;28.91;44.15
60725;BME280;59881;36.722;-4.462;2022-09-24T12:16:02;100403.31;;;28.48;44.81
60725;BME280;59881;36.722;-4.462;2022-09-24T12:21:03;100469.91;;;28.74;45.26
60725;BME280;59881;36.722;-4.462;2022-09-24T12:23:34;100046.34;;;26.05;46.06
60725;BME280;59881;36.722;-4.462;2022-09-24T12:26:04;100465.81;;;28.46;46.61
60725;BME280;59881;36.722;-4.462;2022-09-24T12:32:25;100417.84;;;28.47;46.05
60725;BME280;59881;36.722;-4.462;2022-09-24T12:37:45;100437.38;;;28.74;45.91
60725;BME280;59881;36.722;-4.462;2022-09-24T12:43:12;100428.84;;;29.19;43.23
60725;BME280;59881;36.722;-4.462;2022-09-24T12:45:41;100416.41;;;29.42;41.32
60725;BME280;59881;36.722;-4.462;2022-09-24T12:48:12;100359.16;;;29.20;39.53
60725;BME280;59881;36.722;-4.462;2022-09-24T12:50:39;100365.00;;;29.47;39.21
60725;BME280;59881;36.722;-4.462;2022-09-24T12:53:19;100407.00;;;29.80;39.08
60725;BME280;59881;36.722;-4.462;2022-09-24T12:55:49;100395.00;;;29.87;38.93
60725;BME280;59881;36.722;-4.462;2022-09-24T13:03:37;100216.13;;;28.50;38.02
60725;BME280;59881;36.722;-4.462;2022-09-24T13:06:20;100291.94;;;29.57;37.60
60725;BME280;59881;36.722;-4.462;2022-09-24T13:08:46;99993.19;;;27.23;38.01
60725;BME280;59881;36.722;-4.462;2022-09-24T13:11:32;100319.09;;;29.69;38.59
60725;BME280;59881;36.722;-4.462;2022-09-24T13:16:47;100354.13;;;29.94;38.31
60725;BME280;59881;36.722;-4.462;2022-09-24T13:21:57;100357.66;;;29.95;38.07
60725;BME280;59881;36.722;-4.462;2022-09-24T13:24:47;100279.19;;;29.58;38.12
60725;BME280;59881;36.722;-4.462;2022-09-24T13:32:49;99485.94;;;24.46;39.14
60725;BME280;59881;36.722;-4.462;2022-09-24T13:35:21;100189.75;;;28.68;39.37
60725;BME280;59881;36.722;-4.462;2022-09-24T13:37:54;100438.28;;;29.70;38.50
60725;BME280;59881;36.722;-4.462;2022-09-24T13:40:26;100288.53;;;29.74;37.94
60725;BME280;59881;36.722;-4.462;2022-09-24T13:42:58;100304.81;;;29.74;37.89
60725;BME280;59881;36.722;-4.462;2022-09-24T13:45:29;100301.25;;;29.61;37.21
60725;BME280;59881;36.722;-4.462;2022-09-24T13:47:58;100078.56;;;27.49;37.27
60725;BME280;59881;36.722;-4.462;2022-09-24T13:50:34;100301.63;;;29.41;37.34
60725;BME280;59881;36.722;-4.462;2022-09-24T13:55:54;100303.16;;;29.37;38.98
60725;BME280;59881;36.722;-4.462;2022-09-24T13:58:32;100294.66;;;29.22;39.45
60725;BME280;59881;36.722;-4.462;2022-09-24T14:01:01;100289.09;;;29.17;39.26
60725;BME280;59881;36.722;-4.462;2022-09-24T14:03:29;100138.16;;;28.10;38.88
60725;BME280;59881;36.722;-4.462;2022-09-24T14:05:58;100056.84;;;27.26;39.91
60725;BME280;59881;36.722;-4.462;2022-09-24T14:08:24;100307.78;;;28.95;39.81
60725;BME280;59881;36.722;-4.462;2022-09-24T14:11:02;99957.94;;;26.44;39.78
60725;BME280;59881;36.722;-4.462;2022-09-24T14:13:28;100339.22;;;28.84;39.96
60725;BME280;59881;36.722;-4.462;2022-09-24T14:16:08;100281.72;;;28.82;40.04
60725;BME280;59881;36.722;-4.462;2022-09-24T14:18:35;100280.66;;;28.83;40.37
60725;BME280;59881;36.722;-4.462;2022-09-24T14:23:40;100278.88;;;28.77;40.84
60725;BME280;59881;36.722;-4.462;2022-09-24T14:26:35;100282.03;;;28.74;39.76
60725;BME280;59881;36.722;-4.462;2022-09-24T14:29:04;99898.91;;;24.90;41.53
60725;BME280;59881;36.722;-4.462;2022-09-24T14:31:32;100141.50;;;27.93;41.16
60725;BME280;59881;36.722;-4.462;2022-09-24T14:34:05;100272.16;;;28.79;39.96
60725;BME280;59881;36.722;-4.462;2022-09-24T14:36:34;100272.16;;;28.79;39.78
60725;BME280;59881;36.722;-4.462;2022-09-24T14:39:02;100264.16;;;28.84;39.98
60725;BME280;59881;36.722;-4.462;2022-09-24T14:41:31;100246.78;;;28.74;40.70
60725;BME280;59881;36.722;-4.462;2022-09-24T14:44:05;100271.34;;;29.02;40.47
60725;BME280;59881;36.722;-4.462;2022-09-24T14:46:34;100230.53;;;28.74;41.38
60725;BME280;59881;36.722;-4.462;2022-09-24T14:51:58;100277.25;;;28.87;42.91
60725;BME280;59881;36.722;-4.462;2022-09-24T14:54:38;100253.88;;;28.63;42.71